Time;durP1;ratioP1;P1;durP2;ratioP2;P2;SDS_P1;SDS_P2;PMS_P1;PMS_P2;Temp;Humidity;BMP_temperature;BMP_pressure;BME280_temperature;BME280_humidity;BME280_pressure;Samples;Min_cycle;Max_cycle;Signal;HPM_P1;HPM_P2
2022/01/23 00:01:32;;;;;;;;;;;21.60;44.50;;;;;;5045082;28;19976;-40
2022/01/23 00:03:59;;;;;;;;;;;21.60;44.50;;;;;;5033113;28;19925;-41
2022/01/23 00:06:26;;;;;;;;;;;21.60;44.50;;;;;;5039529;28;19928;-41
2022/01/23 00:08:53;;;;;;;;;;;21.60;44.50;;;;;;5051630;28;20882;-42
2022/01/23 00:11:25;;;;;;;;;;;21.60;44.50;;;;;;5036471;28;20022;-47
2022/01/23 00:19:12;;;;;;;;;;;21.60;44.50;;;;;;5054580;28;19925;-43
2022/01/23 00:21:40;;;;;;;;;;;21.50;44.40;;;;;;5071788;28;19928;-41
2022/01/23 00:32:09;;;;;;;;;;;21.50;44.40;;;;;;5078158;28;20303;-45
2022/01/23 00:34:36;;;;;;;;;;;21.50;44.40;;;;;;5114931;28;19924;-40
2022/01/23 00:37:03;;;;;;;;;;;21.50;44.50;;;;;;5106046;27;20383;-40
2022/01/23 00:39:30;;;;;;;;;;;21.50;44.50;;;;;;5134746;27;19968;-43
2022/01/23 00:41:57;;;;;;;;;;;21.50;44.50;;;;;;5135769;27;20298;-40
2022/01/23 00:44:27;;;;;;;;;;;21.50;44.50;;;;;;5135287;27;20378;-43
2022/01/23 00:46:54;;;;;;;;;;;21.50;44.50;;;;;;5135718;27;19923;-40
2022/01/23 00:49:27;;;;;;;;;;;21.50;44.50;;;;;;5135670;27;19976;-41
2022/01/23 00:51:54;;;;;;;;;;;21.50;44.50;;;;;;5134472;27;19965;-44
2022/01/23 00:54:22;;;;;;;;;;;21.50;44.50;;;;;;5134350;27;19932;-45
2022/01/23 00:56:49;;;;;;;;;;;21.50;44.50;;;;;;5135214;27;19969;-41
2022/01/23 00:59:16;;;;;;;;;;;21.50;44.50;;;;;;5135452;27;19977;-43
2022/01/23 01:01:43;;;;;;;;;;;21.50;44.50;;;;;;5135060;27;19924;-42
2022/01/23 01:04:10;;;;;;;;;;;21.50;44.50;;;;;;5135084;27;20446;-40
2022/01/23 01:06:37;;;;;;;;;;;21.50;44.50;;;;;;5134042;27;19976;-43
2022/01/23 01:09:06;;;;;;;;;;;21.50;44.50;;;;;;5135334;27;20290;-42
2022/01/23 01:30:10;;;;;;;;;;;21.50;44.50;;;;;;5072066;28;19931;-39
2022/01/23 01:31:36;;;;;;;;;;;21.50;44.50;;;;;;5051591;28;19925;-41
2022/01/23 01:34:12;;;;;;;;;;;21.50;44.50;;;;;;5051485;28;19925;-42
2022/01/23 01:36:51;;;;;;;;;;;21.50;44.50;;;;;;5035523;28;19925;-44
2022/01/23 01:39:22;;;;;;;;;;;21.50;44.60;;;;;;5051564;28;19975;-42
2022/01/23 01:41:50;;;;;;;;;;;21.40;44.50;;;;;;5050617;28;20324;-42
2022/01/23 01:44:18;;;;;;;;;;;21.40;44.50;;;;;;5051361;28;20400;-41
2022/01/23 01:46:45;;;;;;;;;;;21.40;44.50;;;;;;5051469;28;20381;-43
2022/01/23 01:49:12;;;;;;;;;;;21.40;44.50;;;;;;5092042;28;19924;-42
2022/01/23 01:51:39;;;;;;;;;;;21.40;44.50;;;;;;5092633;28;19973;-42
2022/01/23 01:54:14;;;;;;;;;;;21.40;44.60;;;;;;5112475;28;19924;-41
2022/01/23 01:57:03;;;;;;;;;;;21.40;44.60;;;;;;5113298;28;19923;-42
2022/01/23 02:00:10;;;;;;;;;;;21.40;44.60;;;;;;5114289;28;19924;-43
2022/01/23 02:10:38;;;;;;;;;;;21.40;44.60;;;;;;5112740;28;20006;-41
2022/01/23 02:13:12;;;;;;;;;;;21.40;44.60;;;;;;5114149;28;19972;-42
2022/01/23 02:51:44;;;;;;;;;;;21.40;44.60;;;;;;5138428;27;20005;-40
2022/01/23 02:56:50;;;;;;;;;;;21.40;44.70;;;;;;5136593;27;19928;-40
2022/01/23 03:02:07;;;;;;;;;;;21.30;44.50;;;;;;5136904;27;19974;-43
2022/01/23 03:04:38;;;;;;;;;;;21.40;44.70;;;;;;5138016;27;19978;-39
2022/01/23 03:09:56;;;;;;;;;;;21.40;44.70;;;;;;5136371;27;19962;-43
2022/01/23 03:15:20;;;;;;;;;;;21.30;44.60;;;;;;5137084;27;19970;-41
2022/01/23 03:28:49;;;;;;;;;;;21.30;44.60;;;;;;5136944;27;20443;-41
2022/01/23 03:31:24;;;;;;;;;;;21.30;44.60;;;;;;5137086;27;19923;-41
2022/01/23 03:33:52;;;;;;;;;;;21.30;44.60;;;;;;5136814;27;20018;-42
2022/01/23 03:36:19;;;;;;;;;;;21.30;44.60;;;;;;5137955;27;19955;-43
2022/01/23 03:38:46;;;;;;;;;;;21.30;44.70;;;;;;5117769;27;19969;-40
2022/01/23 03:41:14;;;;;;;;;;;21.30;44.60;;;;;;5135952;27;19990;-42
2022/01/23 03:43:41;;;;;;;;;;;21.30;44.60;;;;;;5136354;27;19923;-42
2022/01/23 03:51:23;;;;;;;;;;;21.30;44.70;;;;;;5136873;27;19924;-40
2022/01/23 03:53:50;;;;;;;;;;;21.30;44.60;;;;;;5135416;27;20332;-41
2022/01/23 03:56:18;;;;;;;;;;;21.30;44.70;;;;;;5136312;27;19962;-42
2022/01/23 03:58:45;;;;;;;;;;;21.30;44.70;;;;;;5136637;27;19924;-42
2022/01/23 04:01:13;;;;;;;;;;;21.30;44.70;;;;;;5135768;27;19973;-40
2022/01/23 04:03:41;;;;;;;;;;;21.30;44.70;;;;;;5136232;27;19923;-41
2022/01/23 04:06:08;;;;;;;;;;;21.30;44.70;;;;;;5136183;27;19924;-40
2022/01/23 04:08:35;;;;;;;;;;;21.30;44.70;;;;;;5135115;27;19952;-40
2022/01/23 04:11:02;;;;;;;;;;;21.30;44.70;;;;;;5136391;27;19923;-41
2022/01/23 04:13:41;;;;;;;;;;;21.30;44.70;;;;;;5135124;27;19985;-40
2022/01/23 04:16:44;;;;;;;;;;;21.30;44.70;;;;;;5136340;27;19923;-40
2022/01/23 04:33:10;;;;;;;;;;;21.30;44.70;;;;;;5135764;27;20026;-41
2022/01/23 05:00:22;;;;;;;;;;;21.30;44.80;;;;;;5135051;27;19923;-42
2022/01/23 05:05:27;;;;;;;;;;;21.30;44.80;;;;;;5114617;28;19924;-41
2022/01/23 05:07:56;;;;;;;;;;;21.30;44.80;;;;;;5114871;28;19924;-44
2022/01/23 05:10:23;;;;;;;;;;;21.30;44.80;;;;;;5126159;27;20036;-42
2022/01/23 05:12:50;;;;;;;;;;;21.20;44.70;;;;;;5133736;27;19924;-39
2022/01/23 05:15:17;;;;;;;;;;;21.30;44.80;;;;;;5135188;27;19923;-42
2022/01/23 05:17:44;;;;;;;;;;;21.30;44.80;;;;;;5134898;27;19923;-40
2022/01/23 05:20:14;;;;;;;;;;;21.20;44.70;;;;;;5134805;27;19978;-39
2022/01/23 05:22:46;;;;;;;;;;;21.20;44.70;;;;;;5134663;27;19930;-40
2022/01/23 05:25:21;;;;;;;;;;;21.30;44.80;;;;;;5134410;27;19970;-41
2022/01/23 05:27:53;;;;;;;;;;;21.20;44.70;;;;;;5134092;27;19959;-41
2022/01/23 05:30:20;;;;;;;;;;;21.20;44.70;;;;;;5135139;27;20003;-39
2022/01/23 05:32:47;;;;;;;;;;;21.20;44.70;;;;;;5134888;27;20016;-40
2022/01/23 05:35:18;;;;;;;;;;;21.20;44.70;;;;;;5134632;27;20379;-40
2022/01/23 05:37:45;;;;;;;;;;;21.20;44.70;;;;;;5117348;28;19923;-39
2022/01/23 05:40:14;;;;;;;;;;;21.30;44.80;;;;;;5126610;28;19978;-41
2022/01/23 05:42:41;;;;;;;;;;;21.20;44.70;;;;;;5119023;28;19972;-40
2022/01/23 05:45:09;;;;;;;;;;;21.20;44.80;;;;;;5116436;28;19930;-43
2022/01/23 05:47:36;;;;;;;;;;;21.20;44.70;;;;;;5134876;28;20045;-41
2022/01/23 05:50:07;;;;;;;;;;;21.20;44.70;;;;;;5134880;28;19982;-40
2022/01/23 05:52:34;;;;;;;;;;;21.20;44.80;;;;;;5134337;28;20432;-40
2022/01/23 05:55:01;;;;;;;;;;;21.20;44.80;;;;;;5133675;28;20373;-40
2022/01/23 05:57:28;;;;;;;;;;;21.20;44.80;;;;;;5133753;28;20343;-40
2022/01/23 05:59:55;;;;;;;;;;;21.20;44.80;;;;;;5134484;28;20378;-39
2022/01/23 06:02:22;;;;;;;;;;;21.20;44.80;;;;;;5134245;28;19923;-40
2022/01/23 06:04:49;;;;;;;;;;;21.20;44.80;;;;;;5134414;28;19923;-39
2022/01/23 06:07:16;;;;;;;;;;;21.20;45.40;;;;;;5137565;27;19974;-41
2022/01/23 06:09:43;;;;;;;;;;;21.20;44.80;;;;;;5137982;27;19923;-40
2022/01/23 06:12:10;;;;;;;;;;;21.20;44.80;;;;;;5138196;27;19927;-39
2022/01/23 06:14:37;;;;;;;;;;;21.20;44.80;;;;;;5137586;27;19970;-41
2022/01/23 06:17:04;;;;;;;;;;;21.20;44.80;;;;;;5138236;27;19923;-43
2022/01/23 06:19:33;;;;;;;;;;;21.20;44.80;;;;;;5138399;27;20294;-44
2022/01/23 06:22:00;;;;;;;;;;;21.20;44.80;;;;;;5138404;27;19967;-43
2022/01/23 06:24:30;;;;;;;;;;;21.10;44.70;;;;;;5138538;27;19966;-42
2022/01/23 06:26:59;;;;;;;;;;;21.20;44.80;;;;;;5137345;27;19931;-44
2022/01/23 06:29:30;;;;;;;;;;;21.20;44.80;;;;;;5137130;27;19928;-42
2022/01/23 06:31:59;;;;;;;;;;;21.20;44.80;;;;;;5138103;27;19923;-41
2022/01/23 06:34:26;;;;;;;;;;;21.20;44.80;;;;;;5138249;27;19927;-40
2022/01/23 06:36:54;;;;;;;;;;;21.20;44.80;;;;;;5138877;27;19966;-44
2022/01/23 06:39:22;;;;;;;;;;;21.20;44.80;;;;;;5138152;27;19972;-40
2022/01/23 06:41:49;;;;;;;;;;;21.20;44.80;;;;;;5137594;27;19923;-41
2022/01/23 06:44:16;;;;;;;;;;;21.20;44.90;;;;;;5124485;27;20344;-41
2022/01/23 06:46:44;;;;;;;;;;;21.20;44.90;;;;;;5117505;28;20006;-40
2022/01/23 06:49:11;;;;;;;;;;;21.20;44.90;;;;;;5117435;28;19924;-40
2022/01/23 06:51:39;;;;;;;;;;;21.20;44.90;;;;;;5117235;28;20010;-39
2022/01/23 06:54:06;;;;;;;;;;;21.20;44.90;;;;;;5117565;28;19932;-42
2022/01/23 06:56:32;;;;;;;;;;;21.20;44.90;;;;;;5128289;27;19930;-39
2022/01/23 06:58:59;;;;;;;;;;;21.20;44.90;;;;;;5136758;27;19955;-40
2022/01/23 07:01:27;;;;;;;;;;;21.20;44.90;;;;;;5136979;27;19924;-40
2022/01/23 07:03:54;;;;;;;;;;;21.20;44.90;;;;;;5137757;27;19923;-40
2022/01/23 07:06:21;;;;;;;;;;;21.20;44.90;;;;;;5137717;27;19923;-41
2022/01/23 07:09:05;;;;;;;;;;;21.20;44.90;;;;;;5137366;27;19930;-40
2022/01/23 07:11:32;;;;;;;;;;;21.20;45.50;;;;;;5136300;27;19930;-40
2022/01/23 07:13:59;;;;;;;;;;;21.20;44.90;;;;;;5129239;27;19946;-39
2022/01/23 07:16:26;;;;;;;;;;;21.20;44.90;;;;;;5116587;28;19927;-39
2022/01/23 07:18:54;;;;;;;;;;;21.20;44.90;;;;;;5116054;28;19930;-40
2022/01/23 07:21:21;;;;;;;;;;;21.20;44.90;;;;;;5116789;28;19924;-41
2022/01/23 07:23:51;;;;;;;;;;;21.20;44.90;;;;;;5116608;28;20291;-43
2022/01/23 07:26:22;;;;;;;;;;;21.20;44.90;;;;;;5122635;27;20018;-41
2022/01/23 07:28:51;;;;;;;;;;;21.20;44.90;;;;;;5135799;27;20378;-39
2022/01/23 07:31:44;;;;;;;;;;;21.20;44.90;;;;;;5137225;27;19930;-41
2022/01/23 07:34:16;;;;;;;;;;;21.20;44.90;;;;;;5137133;27;19949;-40
2022/01/23 07:36:43;;;;;;;;;;;21.20;44.90;;;;;;5136817;27;19924;-43
2022/01/23 07:39:10;;;;;;;;;;;21.20;44.90;;;;;;5136761;27;19931;-42
2022/01/23 07:41:37;;;;;;;;;;;21.20;44.90;;;;;;5136255;27;20355;-43
2022/01/23 07:44:04;;;;;;;;;;;21.20;44.90;;;;;;5135455;27;19923;-40
2022/01/23 07:46:31;;;;;;;;;;;21.20;44.90;;;;;;5137458;27;19992;-46
2022/01/23 07:48:58;;;;;;;;;;;21.20;44.90;;;;;;5136899;27;19924;-41
2022/01/23 07:51:25;;;;;;;;;;;21.20;44.80;;;;;;5136809;27;20290;-42
2022/01/23 07:53:52;;;;;;;;;;;21.20;44.90;;;;;;5136308;27;19977;-42
2022/01/23 07:56:19;;;;;;;;;;;21.20;44.90;;;;;;5135570;27;19938;-40
2022/01/23 07:58:46;;;;;;;;;;;21.20;44.80;;;;;;5135224;27;19966;-46
2022/01/23 08:01:13;;;;;;;;;;;21.20;44.80;;;;;;5136284;27;19974;-41
2022/01/23 08:03:40;;;;;;;;;;;21.20;44.80;;;;;;5118160;27;19923;-42
2022/01/23 08:06:11;;;;;;;;;;;21.20;44.80;;;;;;5136529;27;19924;-40
2022/01/23 08:08:38;;;;;;;;;;;21.20;44.80;;;;;;5136141;27;20443;-41
2022/01/23 08:11:05;;;;;;;;;;;21.20;44.80;;;;;;5135618;27;19923;-43
2022/01/23 08:13:32;;;;;;;;;;;21.20;44.80;;;;;;5136187;27;19923;-44
2022/01/23 08:16:00;;;;;;;;;;;21.20;44.80;;;;;;5134730;27;20386;-43
2022/01/23 08:18:27;;;;;;;;;;;21.20;44.80;;;;;;5136250;27;20408;-40
2022/01/23 08:20:54;;;;;;;;;;;21.20;44.80;;;;;;5135877;27;19957;-43
2022/01/23 08:23:21;;;;;;;;;;;21.20;44.70;;;;;;5135717;27;19973;-42
2022/01/23 08:25:48;;;;;;;;;;;21.20;44.70;;;;;;5135845;27;19970;-41
2022/01/23 08:28:15;;;;;;;;;;;21.20;44.70;;;;;;5135321;27;20336;-41
2022/01/23 08:30:42;;;;;;;;;;;21.20;44.70;;;;;;5134919;27;19976;-39
2022/01/23 08:33:09;;;;;;;;;;;21.20;44.70;;;;;;5136006;27;20327;-43
2022/01/23 08:35:36;;;;;;;;;;;21.20;44.70;;;;;;5135534;27;20026;-41
2022/01/23 08:38:03;;;;;;;;;;;21.20;44.70;;;;;;5135612;27;19974;-42
2022/01/23 08:43:10;;;;;;;;;;;21.20;44.60;;;;;;5134590;27;19967;-41
2022/01/23 08:45:37;;;;;;;;;;;21.20;44.60;;;;;;5134581;27;19966;-42
2022/01/23 08:48:04;;;;;;;;;;;21.20;44.60;;;;;;5135413;27;19985;-40
2022/01/23 08:50:31;;;;;;;;;;;21.20;44.60;;;;;;5135729;27;20344;-39
2022/01/23 08:52:58;;;;;;;;;;;21.20;44.50;;;;;;5135432;27;19923;-40
2022/01/23 08:55:25;;;;;;;;;;;21.20;44.50;;;;;;5135532;27;19923;-39
2022/01/23 08:57:52;;;;;;;;;;;21.20;44.50;;;;;;5134500;27;20402;-39
2022/01/23 09:00:28;;;;;;;;;;;21.20;44.50;;;;;;5134060;27;19946;-40
2022/01/23 09:02:55;;;;;;;;;;;21.20;44.50;;;;;;5135174;27;19930;-41
2022/01/23 09:05:23;;;;;;;;;;;21.30;44.50;;;;;;5135134;27;20018;-40
2022/01/23 09:07:50;;;;;;;;;;;21.30;44.50;;;;;;5135099;27;19977;-39
2022/01/23 09:10:25;;;;;;;;;;;21.30;44.50;;;;;;5135335;27;19923;-39
2022/01/23 09:15:52;;;;;;;;;;;21.30;44.40;;;;;;5051024;28;20012;-42
2022/01/23 09:18:19;;;;;;;;;;;21.30;44.40;;;;;;5035297;28;19924;-39
2022/01/23 09:20:46;;;;;;;;;;;21.30;44.40;;;;;;5035161;28;19960;-39
2022/01/23 09:23:13;;;;;;;;;;;21.30;44.30;;;;;;5051534;28;20371;-42
2022/01/23 09:25:40;;;;;;;;;;;21.40;44.40;;;;;;5051938;28;19937;-39
2022/01/23 09:28:12;;;;;;;;;;;21.40;44.30;;;;;;5050887;28;19929;-41
2022/01/23 09:30:44;;;;;;;;;;;21.40;44.40;;;;;;5050803;28;19971;-42
2022/01/23 09:33:12;;;;;;;;;;;21.40;44.30;;;;;;5052038;28;20388;-46
2022/01/23 09:35:39;;;;;;;;;;;21.40;44.30;;;;;;5051498;28;20362;-46
2022/01/23 09:38:06;;;;;;;;;;;21.40;44.30;;;;;;5051594;28;19980;-41
2022/01/23 09:40:33;;;;;;;;;;;21.40;44.20;;;;;;5052205;28;20015;-44
2022/01/23 09:43:07;;;;;;;;;;;21.40;44.50;;;;;;5057240;28;19925;-42
2022/01/23 09:45:35;;;;;;;;;;;21.40;44.20;;;;;;5057292;28;19925;-40
2022/01/23 09:48:03;;;;;;;;;;;21.40;44.10;;;;;;5058146;28;19928;-41
2022/01/23 09:50:31;;;;;;;;;;;21.50;44.20;;;;;;5063002;28;19924;-44
2022/01/23 09:52:58;;;;;;;;;;;21.50;44.10;;;;;;5100420;28;20007;-43
2022/01/23 09:55:27;;;;;;;;;;;21.50;44.10;;;;;;5083263;28;19924;-41
2022/01/23 09:57:54;;;;;;;;;;;21.50;44.10;;;;;;5105209;28;19969;-43
2022/01/23 10:00:24;;;;;;;;;;;21.50;44.00;;;;;;5119568;28;20336;-45
2022/01/23 10:02:51;;;;;;;;;;;21.50;44.00;;;;;;5121073;28;19931;-40
2022/01/23 10:05:19;;;;;;;;;;;21.50;44.00;;;;;;5120899;28;20357;-41
2022/01/23 10:07:46;;;;;;;;;;;21.50;43.90;;;;;;5120980;28;19967;-40
2022/01/23 10:10:21;;;;;;;;;;;21.60;44.00;;;;;;5120699;28;19924;-39
2022/01/23 10:12:50;;;;;;;;;;;21.60;43.90;;;;;;5119911;28;19928;-42
2022/01/23 10:15:18;;;;;;;;;;;21.60;43.90;;;;;;5119568;28;19967;-42
2022/01/23 10:17:46;;;;;;;;;;;21.60;43.90;;;;;;5120961;28;19977;-40
2022/01/23 10:20:13;;;;;;;;;;;21.60;43.90;;;;;;5109458;28;19932;-42
2022/01/23 10:22:44;;;;;;;;;;;21.60;43.80;;;;;;5120741;27;19924;-39
2022/01/23 10:25:12;;;;;;;;;;;21.60;43.80;;;;;;5121356;28;19931;-40
2022/01/23 10:27:51;;;;;;;;;;;21.60;43.80;;;;;;5119950;27;20382;-44
2022/01/23 10:30:23;;;;;;;;;;;21.70;43.80;;;;;;5118665;28;20211;-43
2022/01/23 10:32:56;;;;;;;;;;;21.70;43.80;;;;;;5120841;27;19924;-43
2022/01/23 10:35:24;;;;;;;;;;;21.70;43.80;;;;;;5120438;27;19927;-41
2022/01/23 10:37:52;;;;;;;;;;;21.70;43.70;;;;;;5120457;27;20018;-42
2022/01/23 10:40:26;;;;;;;;;;;21.70;43.70;;;;;;5120766;27;19924;-42
2022/01/23 10:50:51;;;;;;;;;;;21.70;43.70;;;;;;5120708;27;20299;-39
2022/01/23 10:53:18;;;;;;;;;;;21.70;43.70;;;;;;5117052;27;19970;-45
2022/01/23 10:55:47;;;;;;;;;;;21.70;43.70;;;;;;5105362;28;20432;-44
2022/01/23 10:58:21;;;;;;;;;;;21.70;43.60;;;;;;5115712;28;19931;-40
2022/01/23 11:00:50;;;;;;;;;;;21.70;43.60;;;;;;5098133;28;19932;-43
2022/01/23 11:03:22;;;;;;;;;;;21.80;43.70;;;;;;5095193;28;20019;-42
2022/01/23 11:05:52;;;;;;;;;;;21.70;43.60;;;;;;5096423;28;19998;-41
2022/01/23 11:08:30;;;;;;;;;;;21.80;43.70;;;;;;5096579;28;19932;-46
2022/01/23 11:11:02;;;;;;;;;;;21.80;43.70;;;;;;5096459;28;19959;-41
2022/01/23 11:19:21;;;;;;;;;;;21.80;43.70;;;;;;5119706;27;19992;-43
2022/01/23 11:21:47;;;;;;;;;;;21.80;43.70;;;;;;5133095;27;20417;-41
2022/01/23 11:24:22;;;;;;;;;;;21.80;43.70;;;;;;5119484;27;19924;-41
2022/01/23 11:26:59;;;;;;;;;;;21.80;43.70;;;;;;5118924;27;19959;-44
2022/01/23 11:29:26;;;;;;;;;;;21.80;43.60;;;;;;5136214;27;19923;-40
2022/01/23 11:31:53;;;;;;;;;;;21.80;43.60;;;;;;5130485;27;20409;-41
2022/01/23 11:34:21;;;;;;;;;;;21.80;43.60;;;;;;5137099;27;20017;-40
2022/01/23 11:36:50;;;;;;;;;;;21.80;43.60;;;;;;5136469;27;19923;-40
2022/01/23 11:56:25;;;;;;;;;;;21.80;43.50;;;;;;5073226;28;19928;-41
2022/01/23 12:01:39;;;;;;;;;;;21.90;43.60;;;;;;5071802;28;19951;-40
2022/01/23 12:04:07;;;;;;;;;;;21.90;43.60;;;;;;5072796;28;19928;-41
2022/01/23 12:06:47;;;;;;;;;;;21.90;43.60;;;;;;5073065;28;19960;-39
2022/01/23 12:09:17;;;;;;;;;;;21.90;43.50;;;;;;5073206;28;19963;-42
2022/01/23 12:12:02;;;;;;;;;;;21.90;43.50;;;;;;5072892;28;19928;-40
2022/01/23 12:17:05;;;;;;;;;;;22.00;43.60;;;;;;5071795;28;20281;-44
2022/01/23 12:19:44;;;;;;;;;;;21.90;43.50;;;;;;5067830;28;19983;-40
2022/01/23 12:22:25;;;;;;;;;;;22.00;43.50;;;;;;5052592;28;20023;-41
2022/01/23 12:24:53;;;;;;;;;;;22.00;43.50;;;;;;5052725;28;19963;-41
2022/01/23 12:27:27;;;;;;;;;;;22.00;43.50;;;;;;5052668;28;20384;-42
2022/01/23 12:30:15;;;;;;;;;;;22.00;43.50;;;;;;5097161;28;19963;-40
2022/01/23 12:32:46;;;;;;;;;;;22.00;43.50;;;;;;5100426;28;19962;-42
2022/01/23 12:35:15;;;;;;;;;;;22.00;43.50;;;;;;5115152;28;19923;-40
2022/01/23 12:38:02;;;;;;;;;;;22.00;43.40;;;;;;5115030;28;19923;-40
2022/01/23 12:40:29;;;;;;;;;;;22.00;43.40;;;;;;5115584;28;19924;-40
2022/01/23 12:43:10;;;;;;;;;;;22.00;43.50;;;;;;5114868;28;19928;-44
2022/01/23 12:45:44;;;;;;;;;;;22.00;43.40;;;;;;5096194;28;19935;-45
2022/01/23 12:48:29;;;;;;;;;;;22.00;43.40;;;;;;5113814;28;19927;-46
2022/01/23 12:50:58;;;;;;;;;;;22.10;43.40;;;;;;5114833;28;20410;-44
2022/01/23 12:53:48;;;;;;;;;;;22.10;43.40;;;;;;5114906;28;19923;-41
2022/01/23 12:56:23;;;;;;;;;;;22.10;43.40;;;;;;5012690;28;20324;-42
2022/01/23 12:58:55;;;;;;;;;;;22.10;43.30;;;;;;5012944;28;19964;-42
2022/01/23 13:01:24;;;;;;;;;;;22.10;43.30;;;;;;5010946;28;19925;-42
2022/01/23 13:03:55;;;;;;;;;;;22.10;43.30;;;;;;5011565;28;20368;-42
2022/01/23 13:06:59;;;;;;;;;;;22.10;43.30;;;;;;5012299;28;19981;-44
2022/01/23 13:12:28;;;;;;;;;;;22.10;43.30;;;;;;4992692;28;19930;-44
2022/01/23 13:18:31;;;;;;;;;;;22.10;43.30;;;;;;4991345;28;19926;-41
2022/01/23 13:31:38;;;;;;;;;;;22.20;43.30;;;;;;4991360;28;19969;-48
2022/01/23 13:34:24;;;;;;;;;;;22.20;43.30;;;;;;5056264;28;19970;-42
2022/01/23 13:36:54;;;;;;;;;;;22.20;43.30;;;;;;5071547;28;19978;-41
2022/01/23 13:39:30;;;;;;;;;;;22.20;43.40;;;;;;5072442;28;20301;-41
2022/01/23 13:42:01;;;;;;;;;;;22.20;43.40;;;;;;5071529;28;19928;-41
2022/01/23 13:53:30;;;;;;;;;;;22.20;43.40;;;;;;5051105;28;19950;-42
2022/01/23 13:58:51;;;;;;;;;;;22.20;43.40;;;;;;5051674;28;19943;-42
2022/01/23 14:01:35;;;;;;;;;;;22.20;43.40;;;;;;5039705;28;20455;-40
2022/01/23 14:04:03;;;;;;;;;;;22.20;43.40;;;;;;5044003;28;19925;-41
2022/01/23 14:06:30;;;;;;;;;;;22.20;43.40;;;;;;5051325;28;20372;-45
2022/01/23 14:09:02;;;;;;;;;;;22.20;43.40;;;;;;5051281;28;19972;-40
2022/01/23 14:11:29;;;;;;;;;;;22.20;43.50;;;;;;5051122;28;20020;-41
2022/01/23 14:14:08;;;;;;;;;;;22.10;43.40;;;;;;5051260;28;19929;-41
2022/01/23 14:16:35;;;;;;;;;;;22.20;43.50;;;;;;5038601;28;19925;-42
2022/01/23 14:19:20;;;;;;;;;;;22.20;43.40;;;;;;5042057;28;20339;-40
2022/01/23 14:21:52;;;;;;;;;;;22.20;43.50;;;;;;5034653;28;20408;-40
2022/01/23 14:24:20;;;;;;;;;;;22.20;43.50;;;;;;5051075;28;19932;-40
2022/01/23 14:26:58;;;;;;;;;;;22.20;43.50;;;;;;5066671;28;19928;-41
2022/01/23 14:29:25;;;;;;;;;;;22.20;43.50;;;;;;5097566;28;19924;-40
2022/01/23 14:32:06;;;;;;;;;;;22.20;43.50;;;;;;5109470;28;19953;-42
2022/01/23 14:34:33;;;;;;;;;;;22.20;43.50;;;;;;5116476;28;19968;-43
2022/01/23 14:37:03;;;;;;;;;;;22.20;43.50;;;;;;5117686;28;20325;-42
2022/01/23 14:39:30;;;;;;;;;;;22.20;43.50;;;;;;5117434;28;19966;-41
2022/01/23 14:42:08;;;;;;;;;;;22.20;43.50;;;;;;5117636;28;20030;-43
2022/01/23 14:44:35;;;;;;;;;;;22.20;43.50;;;;;;5117418;28;20375;-44
2022/01/23 14:47:03;;;;;;;;;;;22.20;43.50;;;;;;5116865;28;19924;-40
2022/01/23 14:49:32;;;;;;;;;;;22.20;43.50;;;;;;5116143;28;20387;-42
2022/01/23 14:52:01;;;;;;;;;;;22.20;43.40;;;;;;5117373;28;19990;-41
2022/01/23 14:54:31;;;;;;;;;;;22.20;43.50;;;;;;5117500;28;19923;-41
2022/01/23 14:57:01;;;;;;;;;;;22.20;43.50;;;;;;5117374;28;19924;-41
2022/01/23 14:59:30;;;;;;;;;;;22.20;43.40;;;;;;5117025;28;19924;-41
2022/01/23 15:01:58;;;;;;;;;;;22.20;43.40;;;;;;5115559;28;19967;-44
2022/01/23 15:04:26;;;;;;;;;;;22.20;43.40;;;;;;5116225;28;19931;-47
2022/01/23 15:06:53;;;;;;;;;;;22.20;43.50;;;;;;5115654;28;19953;-40
2022/01/23 15:09:21;;;;;;;;;;;22.20;43.40;;;;;;5116803;28;19923;-42
2022/01/23 15:11:49;;;;;;;;;;;22.20;43.40;;;;;;5117021;28;19928;-43
2022/01/23 15:14:16;;;;;;;;;;;22.20;43.50;;;;;;5116800;28;19924;-41
2022/01/23 15:16:44;;;;;;;;;;;22.20;43.40;;;;;;5109788;28;20049;-42
2022/01/23 15:19:12;;;;;;;;;;;22.30;43.50;;;;;;5104916;27;20387;-42
2022/01/23 15:21:39;;;;;;;;;;;22.30;43.50;;;;;;5137811;27;19975;-41
2022/01/23 15:24:07;;;;;;;;;;;22.30;43.50;;;;;;5137427;27;19930;-41
2022/01/23 15:26:36;;;;;;;;;;;22.30;43.50;;;;;;5137055;27;19924;-39
2022/01/23 15:29:04;;;;;;;;;;;22.30;43.50;;;;;;5137339;27;19930;-41
2022/01/23 15:31:32;;;;;;;;;;;22.30;43.50;;;;;;5136543;27;19930;-42
2022/01/23 15:33:59;;;;;;;;;;;22.30;43.50;;;;;;5136084;27;19923;-43
2022/01/23 15:36:26;;;;;;;;;;;22.30;43.50;;;;;;5137099;27;20271;-43
2022/01/23 15:38:53;;;;;;;;;;;22.30;43.50;;;;;;5136116;27;19923;-40
2022/01/23 15:41:20;;;;;;;;;;;22.30;43.50;;;;;;5136798;27;19923;-40
2022/01/23 15:43:47;;;;;;;;;;;22.30;43.50;;;;;;5136946;27;19923;-41
2022/01/23 15:46:15;;;;;;;;;;;22.30;43.50;;;;;;5136409;27;19968;-42
2022/01/23 15:48:42;;;;;;;;;;;22.30;43.50;;;;;;5116317;27;19924;-43
2022/01/23 15:51:09;;;;;;;;;;;22.30;43.50;;;;;;5116909;28;19928;-42
2022/01/23 15:53:36;;;;;;;;;;;22.30;43.50;;;;;;5115787;28;20436;-42
2022/01/23 15:56:04;;;;;;;;;;;22.30;43.50;;;;;;5116229;28;19924;-43
2022/01/23 15:58:31;;;;;;;;;;;22.30;43.50;;;;;;5116123;28;19986;-41
2022/01/23 16:00:58;;;;;;;;;;;22.30;43.50;;;;;;5104934;27;19928;-46
2022/01/23 16:03:26;;;;;;;;;;;22.30;43.60;;;;;;5100000;28;20006;-45
2022/01/23 16:05:56;;;;;;;;;;;22.30;43.60;;;;;;5132827;27;20379;-40
2022/01/23 16:08:23;;;;;;;;;;;22.30;43.60;;;;;;5136248;27;19970;-44
2022/01/23 16:10:50;;;;;;;;;;;22.30;43.60;;;;;;5136527;27;20319;-43
2022/01/23 16:13:17;;;;;;;;;;;22.30;43.60;;;;;;5136040;27;19924;-48
2022/01/23 16:15:45;;;;;;;;;;;22.30;43.60;;;;;;5136124;27;19927;-45
2022/01/23 16:18:12;;;;;;;;;;;22.20;43.50;;;;;;5135207;27;20408;-43
2022/01/23 16:20:41;;;;;;;;;;;22.30;43.60;;;;;;5134646;27;19970;-43
2022/01/23 16:23:08;;;;;;;;;;;22.30;43.60;;;;;;5136085;27;19928;-43
2022/01/23 16:25:55;;;;;;;;;;;22.30;43.70;;;;;;5136797;27;20316;-44
2022/01/23 16:28:22;;;;;;;;;;;22.30;43.70;;;;;;5135826;27;19924;-43
2022/01/23 16:30:51;;;;;;;;;;;22.30;43.70;;;;;;5135782;27;19923;-43
2022/01/23 16:33:19;;;;;;;;;;;22.30;43.70;;;;;;5134956;27;19923;-41
2022/01/23 16:35:46;;;;;;;;;;;22.30;43.70;;;;;;5134753;27;19923;-43
2022/01/23 16:38:13;;;;;;;;;;;22.30;43.70;;;;;;5135491;27;20416;-43
2022/01/23 16:40:41;;;;;;;;;;;22.20;43.60;;;;;;5135591;27;19927;-42
2022/01/23 16:43:08;;;;;;;;;;;22.20;43.60;;;;;;5135778;27;20355;-41
2022/01/23 16:45:35;;;;;;;;;;;22.20;43.70;;;;;;5100846;27;19963;-40
2022/01/23 16:48:04;;;;;;;;;;;22.20;43.70;;;;;;5134727;27;19930;-42
2022/01/23 16:50:32;;;;;;;;;;;22.20;43.70;;;;;;5133440;27;20427;-42
2022/01/23 16:52:59;;;;;;;;;;;22.20;43.70;;;;;;5135122;27;20000;-42
2022/01/23 16:55:26;;;;;;;;;;;22.20;43.70;;;;;;5135312;27;19923;-42
2022/01/23 16:57:53;;;;;;;;;;;22.20;43.70;;;;;;5136672;27;19924;-41
2022/01/23 17:00:20;;;;;;;;;;;22.20;43.70;;;;;;5134741;27;19963;-43
2022/01/23 17:03:07;;;;;;;;;;;22.20;43.70;;;;;;5134545;27;19929;-43
2022/01/23 17:05:35;;;;;;;;;;;22.20;43.80;;;;;;5134571;27;19952;-42
2022/01/23 17:08:02;;;;;;;;;;;22.20;43.80;;;;;;5135102;27;19923;-43
2022/01/23 17:10:29;;;;;;;;;;;22.20;43.80;;;;;;5135032;27;19928;-43
2022/01/23 17:12:56;;;;;;;;;;;22.20;43.80;;;;;;5134958;27;19973;-42
2022/01/23 17:15:23;;;;;;;;;;;22.20;44.50;;;;;;5135012;27;20383;-42
2022/01/23 17:17:50;;;;;;;;;;;22.20;43.90;;;;;;5134406;27;19923;-43
2022/01/23 17:20:20;;;;;;;;;;;22.20;43.90;;;;;;5133615;27;19930;-44
2022/01/23 17:22:48;;;;;;;;;;;22.20;43.90;;;;;;5134997;27;20313;-43
2022/01/23 17:25:15;;;;;;;;;;;22.20;43.90;;;;;;5134785;27;19923;-42
2022/01/23 17:27:44;;;;;;;;;;;22.20;43.90;;;;;;5116993;27;19924;-46
2022/01/23 17:30:12;;;;;;;;;;;22.20;43.90;;;;;;5135125;27;19962;-40
2022/01/23 17:32:40;;;;;;;;;;;22.10;43.90;;;;;;5132535;27;19935;-43
2022/01/23 17:35:14;;;;;;;;;;;22.10;43.90;;;;;;5117381;28;20339;-43
2022/01/23 17:37:42;;;;;;;;;;;22.10;43.90;;;;;;5134796;27;19931;-41
2022/01/23 17:40:09;;;;;;;;;;;22.10;43.90;;;;;;5134738;28;19931;-41
2022/01/23 17:42:36;;;;;;;;;;;22.10;43.90;;;;;;5134848;28;19962;-40
2022/01/23 17:45:05;;;;;;;;;;;22.10;43.90;;;;;;5134613;28;19939;-42
2022/01/23 17:50:16;;;;;;;;;;;22.10;43.90;;;;;;5113554;28;19935;-41
2022/01/23 17:52:44;;;;;;;;;;;22.10;43.90;;;;;;5134231;28;19930;-42
2022/01/23 17:55:12;;;;;;;;;;;22.10;43.90;;;;;;5116599;28;20320;-42
2022/01/23 17:57:39;;;;;;;;;;;22.10;43.90;;;;;;5134327;28;19935;-42
2022/01/23 18:00:06;;;;;;;;;;;22.10;44.00;;;;;;5134011;28;20066;-43
2022/01/23 18:02:34;;;;;;;;;;;22.10;44.10;;;;;;5135978;27;20290;-40
2022/01/23 18:05:02;;;;;;;;;;;22.10;44.20;;;;;;5137591;27;19924;-42
2022/01/23 18:07:30;;;;;;;;;;;22.10;44.30;;;;;;5137416;27;20435;-40